createdAt,value
2016-10-17T09:53:15.669Z,60.54
2016-10-17T09:53:33.003Z,59.96
2016-10-17T09:53:50.957Z,59.67
2016-10-17T09:54:08.277Z,59.38
2016-10-17T09:54:25.917Z,59.86
2016-10-17T09:54:43.562Z,59.28
2016-10-17T10:47:02.157Z,61.09
2016-10-17T10:47:20.107Z,60.89
2016-10-17T10:47:37.737Z,60.99
2016-10-17T10:47:55.058Z,61.09
2016-10-17T10:48:13.037Z,61.09
2016-10-17T10:48:30.357Z,61.28
2016-10-17T10:48:47.677Z,60.99
2016-10-17T10:49:05.316Z,60.8
2016-10-17T10:49:23.279Z,60.8
2016-10-17T10:49:41.247Z,60.71
2016-10-17T10:49:59.217Z,60.41
2016-10-17T10:50:16.549Z,60.31
2016-10-17T10:50:34.515Z,60.51
2016-10-17T10:50:52.218Z,60.8
2016-10-17T10:51:09.537Z,60.8
2016-10-17T10:51:27.187Z,61.09
2016-10-17T10:51:44.847Z,60.89
2016-10-17T10:52:02.547Z,61.09
2016-10-17T10:52:20.516Z,60.89
2016-10-17T10:52:38.185Z,60.89
2016-10-17T10:52:55.826Z,60.61
2016-10-17T10:53:13.787Z,60.41
2016-10-17T10:53:21.408Z,60.71
2016-10-17T10:53:39.387Z,60.61
2016-10-17T10:53:56.707Z,60.71
2016-10-17T10:54:14.056Z,60.61
2016-10-17T10:54:32.006Z,60.8
2016-10-17T10:54:49.967Z,60.61
2016-10-17T10:55:07.936Z,60.71
2016-10-17T11:17:30.102Z,59.48
2016-10-17T11:17:47.785Z,59.38
2016-10-17T11:18:05.795Z,59.38
2016-10-17T11:18:23.485Z,59.58
2016-10-17T11:18:41.131Z,59.77
2016-10-17T11:18:56.724Z,59.86
2016-10-17T11:23:27.723Z,59.93
2016-10-17T11:23:45.702Z,59.96
2016-10-17T11:24:03.695Z,60.25
2016-10-17T11:24:21.658Z,60.03
2016-10-17T11:24:39.633Z,60.22
2016-10-17T11:24:57.623Z,60.13
2016-10-17T11:25:14.953Z,59.83
2016-10-17T11:25:32.628Z,60.13
2016-10-17T11:25:49.623Z,60.31
2016-10-17T11:26:06.967Z,60.13
